createdAt,value
2022-08-11T00:01:13.070Z,5.32
2022-08-11T00:06:15.441Z,5.63
2022-08-11T00:11:17.210Z,3.10
2022-08-11T00:22:03.036Z,8.15
2022-08-11T00:26:50.962Z,8.95
2022-08-11T00:31:53.975Z,5.35
2022-08-11T00:37:04.338Z,3.92
2022-08-11T00:42:17.895Z,4.78
2022-08-11T00:47:31.453Z,4.93
2022-08-11T00:53:03.717Z,4.90
2022-08-11T00:58:30.385Z,7.70
2022-08-11T01:03:54.150Z,7.53
2022-08-11T01:09:22.308Z,8.20
2022-08-11T01:14:34.324Z,7.45
2022-08-11T01:20:46.456Z,7.05
2022-08-11T01:25:56.392Z,5.72
2022-08-11T01:31:27.324Z,5.25
2022-08-11T01:36:56.571Z,5.93
2022-08-11T01:43:02.404Z,5.30
2022-08-11T01:48:30.665Z,4.90
2022-08-11T01:53:49.316Z,4.25
2022-08-11T01:59:10.745Z,4.38
2022-08-11T02:04:25.421Z,6.10
2022-08-11T02:10:36.344Z,4.95
2022-08-11T02:15:50.563Z,4.25
2022-08-11T02:21:13.912Z,4.07
2022-08-11T02:26:23.332Z,4.95
2022-08-11T02:32:25.968Z,5.38
2022-08-11T02:37:24.325Z,4.53
2022-08-11T02:42:44.551Z,4.05
2022-08-11T02:48:27.407Z,4.90
2022-08-11T02:53:44.536Z,4.38
2022-08-11T03:04:25.299Z,4.47
2022-08-11T03:09:50.767Z,6.57
2022-08-11T03:15:17.935Z,6.47
2022-08-11T03:20:25.537Z,5.78
2022-08-11T03:25:43.326Z,6.20
2022-08-11T03:31:09.876Z,5.68
2022-08-11T03:37:15.123Z,5.65
2022-08-11T03:42:22.657Z,6.03
2022-08-11T03:47:58.376Z,8.05
2022-08-11T03:53:38.025Z,7.20
2022-08-11T03:58:52.071Z,4.88
2022-08-11T04:04:17.841Z,8.70
2022-08-11T04:09:46.744Z,6.50
2022-08-11T04:15:44.838Z,5.50
2022-08-11T04:21:01.203Z,5.47
2022-08-11T04:26:25.979Z,6.45
2022-08-11T04:31:50.783Z,6.35
2022-08-11T04:37:16.098Z,5.22
2022-08-11T04:43:00.006Z,5.88
2022-08-11T04:48:36.184Z,6.93
2022-08-11T04:54:03.996Z,6.85
2022-08-11T05:00:02.913Z,8.10
2022-08-11T05:05:38.309Z,7.00
2022-08-11T05:10:45.431Z,7.78
2022-08-11T05:16:15.795Z,8.23
2022-08-11T05:21:44.820Z,9.05
2022-08-11T05:27:12.812Z,9.35
2022-08-11T05:32:34.679Z,9.68
2022-08-11T05:38:03.737Z,8.43
2022-08-11T05:43:27.356Z,7.20
2022-08-11T05:48:52.454Z,8.57
2022-08-11T05:54:28.962Z,8.55
2022-08-11T05:59:31.166Z,9.68
2022-08-11T06:04:32.859Z,9.25
2022-08-11T06:09:41.116Z,6.25
2022-08-11T06:19:47.376Z,9.73
2022-08-11T06:24:54.680Z,6.32
2022-08-11T06:29:56.257Z,7.20
2022-08-11T06:35:19.137Z,7.82
2022-08-11T06:40:30.030Z,9.68
2022-08-11T06:45:42.118Z,11.00
2022-08-11T06:51:14.296Z,6.45
2022-08-11T06:56:41.756Z,7.18
2022-08-11T07:01:58.965Z,7.75
2022-08-11T07:07:41.973Z,6.70
2022-08-11T07:13:02.457Z,9.32
2022-08-11T07:18:23.268Z,9.82
2022-08-11T07:23:43.739Z,8.35
2022-08-11T07:28:56.064Z,7.80
2022-08-11T07:34:20.566Z,8.75
2022-08-11T07:39:24.706Z,7.10
2022-08-11T07:44:34.441Z,10.00
2022-08-11T07:49:56.262Z,11.75
2022-08-11T07:55:14.595Z,7.10
2022-08-11T08:00:34.870Z,7.60
2022-08-11T08:05:55.825Z,10.13
2022-08-11T08:16:35.841Z,7.07
2022-08-11T08:21:38.912Z,6.82
2022-08-11T08:26:58.846Z,8.60
2022-08-11T08:32:00.388Z,9.90
2022-08-11T08:42:11.721Z,7.70
2022-08-11T08:47:15.011Z,9.30
2022-08-11T08:52:43.679Z,9.75
2022-08-11T08:57:45.861Z,8.25
2022-08-11T09:02:47.546Z,10.90
2022-08-11T09:07:51.079Z,12.10
2022-08-11T09:12:53.736Z,9.63
2022-08-11T09:18:03.530Z,8.38
2022-08-11T09:24:07.734Z,9.43
2022-08-11T09:28:51.338Z,10.52
2022-08-11T09:33:54.252Z,14.27
2022-08-11T09:39:14.293Z,6.78
2022-08-11T09:44:34.182Z,7.30
2022-08-11T09:49:35.799Z,8.27
2022-08-11T09:54:37.325Z,9.10
2022-08-11T09:59:38.879Z,7.95
2022-08-11T10:04:45.367Z,9.60
2022-08-11T10:09:56.457Z,9.00
2022-08-11T10:15:23.706Z,11.20
2022-08-11T10:20:25.891Z,10.57
2022-08-11T10:25:45.945Z,9.18
2022-08-11T10:31:06.725Z,10.52
2022-08-11T10:36:15.966Z,11.38
2022-08-11T10:41:38.259Z,11.30
2022-08-11T10:47:19.414Z,10.07
2022-08-11T10:52:39.515Z,10.60
2022-08-11T10:58:04.870Z,9.52
2022-08-11T11:03:21.961Z,8.38
2022-08-11T11:08:45.515Z,6.47
2022-08-11T11:14:08.897Z,7.30
2022-08-11T11:19:11.263Z,6.30
2022-08-11T11:24:46.004Z,7.03
2022-08-11T11:30:09.207Z,6.70
2022-08-11T11:35:15.799Z,8.18
2022-08-11T11:40:22.227Z,10.32
2022-08-11T11:45:32.099Z,10.50
2022-08-11T11:50:35.444Z,8.75
2022-08-11T11:55:36.956Z,12.18
2022-08-11T12:00:57.878Z,11.63
2022-08-11T12:05:59.397Z,9.50
2022-08-11T12:11:20.873Z,9.75
2022-08-11T12:16:34.851Z,8.60
2022-08-11T12:21:38.341Z,7.40
2022-08-11T12:26:39.836Z,6.28
2022-08-11T12:31:41.608Z,6.10
2022-08-11T12:36:56.586Z,6.32
2022-08-11T12:42:16.445Z,7.55
2022-08-11T12:47:19.882Z,7.70
2022-08-11T12:52:24.257Z,8.85
2022-08-11T12:57:57.322Z,8.75
2022-08-11T13:08:19.478Z,9.25
2022-08-11T13:13:54.497Z,8.98
2022-08-11T13:18:42.945Z,5.18
2022-08-11T13:24:00.511Z,8.52
2022-08-11T13:29:04.110Z,7.10
2022-08-11T13:34:08.361Z,8.85
2022-08-11T13:39:10.204Z,5.40
2022-08-11T13:44:15.897Z,6.90
2022-08-11T13:49:19.909Z,3.90
2022-08-11T13:54:23.513Z,5.22
2022-08-11T13:59:29.843Z,5.50
2022-08-11T14:04:39.435Z,3.42
2022-08-11T14:09:42.641Z,6.45
2022-08-11T14:14:44.287Z,5.60
2022-08-11T14:19:45.795Z,7.97
2022-08-11T14:24:49.875Z,5.75
2022-08-11T14:29:51.390Z,8.32
2022-08-11T14:34:52.977Z,5.65
2022-08-11T14:40:02.211Z,5.57
2022-08-11T14:45:54.277Z,6.20
2022-08-11T14:50:55.322Z,5.95
2022-08-11T14:56:15.130Z,5.88
2022-08-11T15:01:34.995Z,5.07
2022-08-11T15:06:36.512Z,4.07
2022-08-11T15:11:56.389Z,5.57
2022-08-11T15:17:09.742Z,6.80
2022-08-11T15:22:29.810Z,4.90
2022-08-11T15:27:49.786Z,4.47
2022-08-11T15:33:09.731Z,4.25
2022-08-11T15:38:11.718Z,3.97
2022-08-11T15:43:46.981Z,4.28
2022-08-11T15:49:08.724Z,5.43
2022-08-11T15:54:17.462Z,4.07
2022-08-11T15:59:41.768Z,3.80
2022-08-11T16:04:45.842Z,3.83
2022-08-11T16:09:54.997Z,3.22
2022-08-11T16:15:20.829Z,4.53
2022-08-11T16:20:23.970Z,4.53
2022-08-11T16:27:04.427Z,7.28
2022-08-11T16:30:47.055Z,5.15
2022-08-11T16:36:06.858Z,4.32
2022-08-11T16:41:37.211Z,4.10
2022-08-11T16:46:57.113Z,4.10
2022-08-11T16:52:03.952Z,3.22
2022-08-11T16:57:50.187Z,4.30
2022-08-11T17:03:11.409Z,5.80
2022-08-11T17:08:31.554Z,4.00
2022-08-11T17:13:37.630Z,6.55
2022-08-11T17:18:54.440Z,6.85
2022-08-11T17:24:08.821Z,5.20
2022-08-11T17:29:10.702Z,5.05
2022-08-11T17:34:30.749Z,3.60
2022-08-11T17:39:32.403Z,6.00
2022-08-11T17:44:52.276Z,5.45
2022-08-11T17:49:53.857Z,3.40
2022-08-11T17:55:14.110Z,5.40
2022-08-11T18:05:18.965Z,4.70
2022-08-11T18:10:40.248Z,5.13
2022-08-11T18:16:01.856Z,9.07
2022-08-11T18:21:21.665Z,6.88
2022-08-11T18:26:41.581Z,5.85
2022-08-11T18:32:05.597Z,5.47
2022-08-11T18:37:29.621Z,6.53
2022-08-11T18:42:50.462Z,5.93
2022-08-11T18:53:31.853Z,5.43
2022-08-11T18:58:51.982Z,7.32
2022-08-11T19:04:19.115Z,6.20
2022-08-11T19:09:39.849Z,9.00
2022-08-11T19:15:00.039Z,6.95
2022-08-11T19:20:21.989Z,5.75
2022-08-11T19:25:42.344Z,7.35
2022-08-11T19:31:02.509Z,5.20
2022-08-11T19:36:22.946Z,7.00
2022-08-11T19:41:56.346Z,4.22
2022-08-11T19:47:18.189Z,8.68
2022-08-11T19:52:38.510Z,6.00
2022-08-11T19:57:58.519Z,5.50
2022-08-11T20:03:18.667Z,6.80
2022-08-11T20:08:38.582Z,7.40
2022-08-11T20:13:58.593Z,7.72
2022-08-11T20:19:19.632Z,5.18
2022-08-11T20:30:06.897Z,8.13
2022-08-11T20:35:27.455Z,8.10
2022-08-11T20:40:47.371Z,5.75
2022-08-11T20:46:07.562Z,4.80
2022-08-11T20:56:54.632Z,9.18
2022-08-11T21:02:18.252Z,6.07
2022-08-11T21:07:41.188Z,4.57
2022-08-11T21:13:26.280Z,4.15
2022-08-11T21:18:41.414Z,5.32
2022-08-11T21:24:01.295Z,4.32
2022-08-11T21:29:21.716Z,5.63
2022-08-11T21:34:41.527Z,7.85
2022-08-11T21:40:01.422Z,5.80
2022-08-11T21:45:21.335Z,4.60
2022-08-11T21:50:41.227Z,6.57
2022-08-11T21:56:01.640Z,4.78
2022-08-11T22:01:21.482Z,5.90
2022-08-11T22:06:41.332Z,5.60
2022-08-11T22:12:34.082Z,5.10
2022-08-11T22:17:40.839Z,4.20
2022-08-11T22:23:00.943Z,5.68
2022-08-11T22:28:21.895Z,7.28
2022-08-11T22:39:22.888Z,4.40
2022-08-11T22:44:42.879Z,4.45
2022-08-11T22:50:03.627Z,4.35
2022-08-11T22:55:24.495Z,6.53
2022-08-11T23:00:44.376Z,4.10
2022-08-11T23:06:04.904Z,4.75
2022-08-11T23:11:25.073Z,4.45
2022-08-11T23:16:44.974Z,5.68
2022-08-11T23:22:05.756Z,4.22
2022-08-11T23:27:27.002Z,4.68
2022-08-11T23:32:46.854Z,8.23
2022-08-11T23:38:06.953Z,7.97
2022-08-11T23:43:27.023Z,4.78
2022-08-11T23:48:47.020Z,7.10
2022-08-11T23:54:08.000Z,5.32
2022-08-11T23:59:29.172Z,5.65
